Nearby METAR Reports

 

LFRV - Vannes-Meucon, FRANCE
Distance from station: NE 28km
Mise à jour: 20/07/2024 13:30
Couvert
Couvert
 Wind from SSO
Vent: SSO 17 km/h
Température: 19°C
Point de rosée: 18°C
Humidité: 94%
Baromètre: 1010 hPa
Clouds: Couvert
Visibility: 10 km
Cloud details: Couvert 274 m
2024/07/20 11:30 LFRV 201130Z AUTO 21009KT 170V240 9999 OVC009 19/18 Q1010
LFRZ - Saint - Nazaire / Montoir, FRANCE
Distance from station: SE 64km
Mise à jour: 20/07/2024 13:30
Couvert
Couvert
 Wind from SO
Vent: SO 26 km/h
Température: 21°C
Point de rosée: 18°C
Humidité: 83%
Baromètre: 1010 hPa
Clouds: Couvert
Visibility: 10 km
Cloud details: nuageux 488 m
Couvert 1646 m
2024/07/20 11:30 LFRZ 201130Z AUTO 22014KT 9999 BKN016 OVC054 21/18 Q1010 TEMPO 4000 SHRA BKN013 BKN025TCU
 
LFRH - Lorient / Lann- Bihoué, FRANCE
Distance from station: NO 81km
Mise à jour: 20/07/2024 13:30
Couvert
Couvert
 Wind from S
Vent: S 22 km/h
Température: 20°C
Point de rosée: 18°C
Humidité: 88%
Baromètre: 1009 hPa
Clouds: Couvert
Visibility: 10 km
Cloud details: nuageux 183 m
Couvert 335 m
2024/07/20 11:30 LFRH 201130Z AUTO 18012KT 160V220 9999 BKN006 OVC011 20/18 Q1009 TEMPO 2000 RADZ BKN005 BKN015CB
LFRB - Brest - Guipavas, FRANCE
Distance from station: NO 200km
Mise à jour: 20/07/2024 13:30
Léger crachin, Brume, Orage
Léger crachin, Brume, Orage
 Wind from S
Vent: S 26 km/h
Température: 19°C
Point de rosée: 18°C
Humidité: 94%
Baromètre: 1008 hPa
Résumé: Léger crachin, Brume
Clouds: Orage
Visibility: 5 km
Cloud details: Couvert 122 m
2024/07/20 11:30 LFRB 201130Z AUTO 19014KT 5000 -DZ BR OVC004/// ///CB 19/18 Q1008 TEMPO VRB15G25KT 1200 TSRA
 
LFPV - Villacoublay - Vélizy/, FRANCE
Distance from station: NE 450km
Mise à jour: 20/07/2024 13:30
Clair
Clair
 Wind from S
Vent: S 7 km/h
Température: 28°C
Heat Index: 28°C
Point de rosée: 15°C
Humidité: 45%
Baromètre: 1009 hPa
Résumé: Clair
Visibility: greater than 10 km
2024/07/20 11:30 LFPV 201130Z AUTO 19004KT 120V270 CAVOK 28/15 Q1009 NOSIG
LFRS - Nantes Atlantique, FRANCE
Distance from station: SE 106km
Mise à jour: 20/07/2024 13:30
nuageux
nuageux
 Wind from SSO
Vent: SSO 11 km/h
Température: 24°C
Point de rosée: 19°C
Humidité: 74%
Baromètre: 1010 hPa
Clouds: nuageux
Visibility: 10 km
Cloud details: Peu nuageux 610 m
nuageux 2012 m
2024/07/20 11:30 LFRS 201130Z AUTO 21006KT 170V260 9999 FEW020 BKN066 24/19 Q1010 NOSIG